Time;durP1;ratioP1;P1;durP2;ratioP2;P2;SDS_P1;SDS_P2;PMS_P1;PMS_P2;Temp;Humidity;BMP_temperature;BMP_pressure;BME280_temperature;BME280_humidity;BME280_pressure;Samples;Min_cycle;Max_cycle;Signal;HPM_P1;HPM_P2
2022/04/29 00:02:47;;;;;;;7.07;4.82;;;;;;;;;;12658247;23;20208;-71
2022/04/29 00:07:48;;;;;;;5.10;4.80;;;;;;;;;;12660508;23;20193;-71
2022/04/29 00:12:49;;;;;;;8.70;5.70;;;;;;;;;;12634007;23;20271;-71
2022/04/29 00:17:50;;;;;;;5.28;4.22;;;;;;;;;;12658852;23;20192;-70
2022/04/29 00:22:52;;;;;;;9.65;5.05;;;;;;;;;;12659217;23;20180;-73
2022/04/29 00:27:53;;;;;;;4.93;4.60;;;;;;;;;;12659225;23;20928;-71
2022/04/29 00:32:54;;;;;;;4.60;4.10;;;;;;;;;;12631572;23;20200;-70
2022/04/29 00:37:56;;;;;;;5.93;5.38;;;;;;;;;;12660405;23;20184;-71
2022/04/29 00:42:57;;;;;;;4.75;4.32;;;;;;;;;;12633086;23;20208;-71
2022/04/29 00:47:58;;;;;;;6.25;4.78;;;;;;;;;;12659093;23;20196;-71
2022/04/29 00:53:00;;;;;;;5.72;4.80;;;;;;;;;;12658690;23;20176;-70
2022/04/29 00:58:13;;;;;;;6.90;4.50;;;;;;;;;;12660406;23;20200;-71
2022/04/29 01:03:15;;;;;;;5.10;4.20;;;;;;;;;;12663180;23;20222;-71
2022/04/29 01:08:16;;;;;;;5.65;4.30;;;;;;;;;;12637470;23;20208;-71
2022/04/29 01:13:18;;;;;;;5.05;4.60;;;;;;;;;;12686504;23;20365;-71
2022/04/29 01:18:19;;;;;;;4.68;4.32;;;;;;;;;;12663182;23;20737;-70
2022/04/29 01:23:20;;;;;;;5.00;4.30;;;;;;;;;;12636958;23;20177;-70
2022/04/29 01:28:23;;;;;;;7.50;4.15;;;;;;;;;;12663744;23;20197;-70
2022/04/29 01:33:28;;;;;;;5.85;4.68;;;;;;;;;;12634269;23;20200;-70
2022/04/29 01:38:29;;;;;;;7.20;4.95;;;;;;;;;;12659741;23;20273;-70
2022/04/29 01:43:32;;;;;;;3.75;3.50;;;;;;;;;;12683704;23;20236;-70
2022/04/29 01:48:33;;;;;;;9.02;4.18;;;;;;;;;;12660195;23;20196;-70
2022/04/29 01:53:53;;;;;;;9.10;4.10;;;;;;;;;;12635797;23;20185;-66
2022/04/29 01:58:55;;;;;;;6.82;3.70;;;;;;;;;;12611598;23;20181;-70
2022/04/29 02:03:58;;;;;;;3.95;3.35;;;;;;;;;;12632614;23;20263;-70
2022/04/29 02:09:00;;;;;;;4.38;3.92;;;;;;;;;;12633599;23;20686;-71
2022/04/29 02:14:02;;;;;;;6.00;3.72;;;;;;;;;;12661428;23;20291;-71
2022/04/29 02:19:27;;;;;;;7.82;4.05;;;;;;;;;;12682538;23;20240;-70
2022/04/29 02:24:28;;;;;;;8.32;3.83;;;;;;;;;;12683005;23;20256;-71
2022/04/29 02:29:29;;;;;;;10.98;3.78;;;;;;;;;;12684684;23;20710;-71
2022/04/29 02:34:31;;;;;;;9.40;4.60;;;;;;;;;;12683877;23;20809;-71
2022/04/29 02:39:32;;;;;;;4.47;4.07;;;;;;;;;;12683727;23;20192;-66
2022/04/29 02:44:34;;;;;;;3.78;3.33;;;;;;;;;;12682595;23;20681;-70
2022/04/29 02:49:35;;;;;;;4.38;3.90;;;;;;;;;;12683202;23;20576;-71
2022/04/29 02:54:36;;;;;;;7.20;4.22;;;;;;;;;;12684007;23;20244;-71
2022/04/29 02:59:40;;;;;;;9.48;3.90;;;;;;;;;;12684067;23;20263;-71
2022/04/29 03:04:41;;;;;;;3.53;3.00;;;;;;;;;;12681944;23;20718;-71
2022/04/29 03:09:43;;;;;;;3.55;3.35;;;;;;;;;;12683492;23;20181;-71
2022/04/29 03:14:44;;;;;;;4.97;4.47;;;;;;;;;;12658043;23;20193;-71
2022/04/29 03:19:46;;;;;;;4.75;3.88;;;;;;;;;;12683529;23;20260;-71
2022/04/29 03:24:47;;;;;;;5.60;4.47;;;;;;;;;;12681934;23;20197;-71
2022/04/29 03:29:48;;;;;;;6.95;4.13;;;;;;;;;;12659827;23;20169;-71
2022/04/29 03:34:49;;;;;;;7.20;3.95;;;;;;;;;;12682249;23;20240;-71
2022/04/29 03:39:53;;;;;;;6.00;4.68;;;;;;;;;;12682561;23;20268;-70
2022/04/29 03:44:54;;;;;;;6.18;3.85;;;;;;;;;;12681737;23;20212;-71
2022/04/29 03:49:57;;;;;;;7.88;4.65;;;;;;;;;;12682908;23;20188;-71
2022/04/29 03:54:59;;;;;;;5.43;4.93;;;;;;;;;;12680472;23;20574;-71
2022/04/29 04:00:00;;;;;;;7.75;5.25;;;;;;;;;;12683595;23;20808;-71
2022/04/29 04:05:01;;;;;;;6.38;5.28;;;;;;;;;;12656854;23;20612;-71
2022/04/29 04:10:06;;;;;;;7.07;4.85;;;;;;;;;;12658596;23;20287;-70
2022/04/29 04:15:07;;;;;;;8.25;5.25;;;;;;;;;;12657441;23;20177;-70
2022/04/29 04:20:16;;;;;;;6.60;5.25;;;;;;;;;;12631223;23;20255;-71
2022/04/29 04:25:35;;;;;;;6.07;4.63;;;;;;;;;;12633314;23;20247;-72
2022/04/29 04:30:37;;;;;;;6.43;4.63;;;;;;;;;;12633327;23;20272;-71
2022/04/29 04:35:38;;;;;;;8.43;4.90;;;;;;;;;;12636078;23;20195;-71
2022/04/29 04:40:39;;;;;;;5.90;5.28;;;;;;;;;;12665255;23;20184;-71
2022/04/29 04:45:41;;;;;;;8.43;5.43;;;;;;;;;;12637937;23;20200;-71
2022/04/29 04:51:03;;;;;;;6.93;5.68;;;;;;;;;;12662182;23;20188;-73
2022/04/29 04:56:05;;;;;;;10.60;5.85;;;;;;;;;;12658289;23;20641;-72
2022/04/29 05:01:06;;;;;;;7.15;6.22;;;;;;;;;;12632618;23;20980;-72
2022/04/29 05:06:37;;;;;;;13.75;6.85;;;;;;;;;;12659927;23;20550;-71
2022/04/29 05:11:38;;;;;;;10.48;5.75;;;;;;;;;;12613863;23;20187;-71
2022/04/29 05:16:43;;;;;;;12.88;6.35;;;;;;;;;;12639939;23;20268;-71
2022/04/29 05:22:10;;;;;;;6.80;5.93;;;;;;;;;;12659719;23;20188;-71
2022/04/29 05:27:11;;;;;;;12.40;6.00;;;;;;;;;;12614765;23;20224;-71
2022/04/29 05:32:33;;;;;;;8.40;6.07;;;;;;;;;;12606143;23;20930;-71
2022/04/29 05:37:53;;;;;;;10.18;6.35;;;;;;;;;;12661549;23;20284;-71
2022/04/29 05:42:57;;;;;;;17.17;5.82;;;;;;;;;;12635835;23;20213;-72
2022/04/29 05:47:58;;;;;;;9.40;5.80;;;;;;;;;;12662860;23;20283;-70
2022/04/29 05:52:59;;;;;;;10.80;5.65;;;;;;;;;;12637103;23;20205;-71
2022/04/29 05:58:01;;;;;;;9.85;5.90;;;;;;;;;;12631635;23;20203;-69
2022/04/29 06:03:03;;;;;;;16.27;6.22;;;;;;;;;;12681470;23;20350;-71
2022/04/29 06:08:05;;;;;;;8.88;5.70;;;;;;;;;;12684121;23;20201;-71
2022/04/29 06:13:10;;;;;;;14.02;5.55;;;;;;;;;;12683605;23;20284;-71
2022/04/29 06:18:32;;;;;;;8.95;5.50;;;;;;;;;;12661034;23;20188;-70
2022/04/29 06:23:59;;;;;;;9.75;4.97;;;;;;;;;;12681340;23;20181;-71
2022/04/29 06:29:00;;;;;;;6.20;5.30;;;;;;;;;;12680036;23;20189;-71
2022/04/29 06:34:02;;;;;;;9.25;5.82;;;;;;;;;;12679711;23;20484;-72
2022/04/29 06:39:04;;;;;;;7.32;5.60;;;;;;;;;;12657367;23;20848;-71
2022/04/29 06:44:23;;;;;;;16.67;5.60;;;;;;;;;;12657829;23;20347;-71
2022/04/29 06:49:43;;;;;;;9.75;5.28;;;;;;;;;;12657708;23;20180;-71
2022/04/29 06:55:03;;;;;;;7.85;5.32;;;;;;;;;;12656571;23;20224;-71
2022/04/29 07:00:05;;;;;;;6.20;5.00;;;;;;;;;;12632934;23;20247;-71
2022/04/29 07:05:07;;;;;;;9.00;4.55;;;;;;;;;;12633009;23;20205;-71
2022/04/29 07:10:08;;;;;;;13.88;5.95;;;;;;;;;;12631763;23;20268;-71
2022/04/29 07:15:28;;;;;;;11.98;5.13;;;;;;;;;;12659010;23;20184;-70
2022/04/29 07:20:37;;;;;;;6.60;4.30;;;;;;;;;;12632962;23;20185;-71
2022/04/29 07:25:39;;;;;;;8.48;5.15;;;;;;;;;;12634048;23;20263;-72
2022/04/29 07:30:40;;;;;;;15.10;4.20;;;;;;;;;;12658118;23;20289;-71
2022/04/29 07:46:40;;;;;;;10.00;4.65;;;;;;;;;;12655992;23;20200;-70
2022/04/29 07:52:08;;;;;;;10.35;4.90;;;;;;;;;;12626967;23;20185;-69
2022/04/29 07:57:10;;;;;;;6.18;5.05;;;;;;;;;;12658964;23;20207;-70
2022/04/29 08:02:12;;;;;;;9.07;5.25;;;;;;;;;;12630404;23;20575;-70
2022/04/29 08:07:13;;;;;;;11.75;4.82;;;;;;;;;;12631561;23;20204;-68
2022/04/29 08:12:14;;;;;;;8.05;5.35;;;;;;;;;;12628410;23;20267;-71
2022/04/29 08:17:34;;;;;;;12.50;5.72;;;;;;;;;;12655489;23;20184;-70
2022/04/29 08:22:36;;;;;;;12.07;5.53;;;;;;;;;;12633494;23;20211;-69
2022/04/29 08:27:37;;;;;;;7.03;5.28;;;;;;;;;;12659637;23;20657;-70
2022/04/29 08:32:39;;;;;;;9.57;5.28;;;;;;;;;;12630501;23;20647;-70
2022/04/29 08:37:44;;;;;;;8.75;5.00;;;;;;;;;;12633415;23;20570;-70
2022/04/29 08:42:45;;;;;;;11.27;6.53;;;;;;;;;;12680661;23;20212;-70
2022/04/29 08:47:47;;;;;;;8.52;5.25;;;;;;;;;;12683684;23;20207;-70
2022/04/29 08:52:51;;;;;;;12.32;5.32;;;;;;;;;;12681372;23;20185;-70
2022/04/29 09:03:12;;;;;;;13.50;5.68;;;;;;;;;;12658115;23;20209;-69
2022/04/29 09:08:21;;;;;;;8.60;5.20;;;;;;;;;;12660201;23;20189;-70
2022/04/29 09:13:24;;;;;;;10.15;5.32;;;;;;;;;;12657883;23;20506;-70
2022/04/29 09:18:37;;;;;;;5.72;5.28;;;;;;;;;;12660481;23;20185;-68
2022/04/29 09:23:39;;;;;;;8.35;4.80;;;;;;;;;;12661933;23;20868;-70
2022/04/29 09:29:19;;;;;;;6.15;5.45;;;;;;;;;;12660640;23;20196;-69
2022/04/29 09:34:44;;;;;;;11.40;4.95;;;;;;;;;;12599760;23;20644;-70
2022/04/29 09:39:51;;;;;;;9.88;5.40;;;;;;;;;;12637296;23;20188;-70
2022/04/29 09:44:52;;;;;;;5.75;5.22;;;;;;;;;;12658319;23;20209;-70
2022/04/29 09:49:58;;;;;;;15.52;5.32;;;;;;;;;;12660876;23;20259;-69
2022/04/29 09:55:17;;;;;;;4.22;3.92;;;;;;;;;;12660160;23;20181;-69
2022/04/29 10:00:19;;;;;;;6.35;3.90;;;;;;;;;;12662515;23;20189;-69
2022/04/29 10:05:20;;;;;;;6.28;3.65;;;;;;;;;;12662731;23;20528;-68
2022/04/29 10:10:30;;;;;;;7.82;3.97;;;;;;;;;;12634685;23;20521;-69
2022/04/29 10:15:33;;;;;;;7.93;3.80;;;;;;;;;;12660338;23;20188;-69
2022/04/29 10:26:02;;;;;;;5.45;3.92;;;;;;;;;;12660955;23;20591;-68
2022/04/29 10:31:09;;;;;;;4.15;3.72;;;;;;;;;;12657298;23;20196;-68
2022/04/29 10:36:11;;;;;;;8.00;3.20;;;;;;;;;;12659083;23;20701;-68
2022/04/29 10:41:15;;;;;;;3.38;2.97;;;;;;;;;;12660509;23;20244;-68
2022/04/29 10:46:32;;;;;;;7.95;3.30;;;;;;;;;;12600109;23;20193;-68
2022/04/29 10:51:51;;;;;;;3.08;2.80;;;;;;;;;;12597207;23;20178;-68
2022/04/29 10:57:02;;;;;;;3.92;3.47;;;;;;;;;;12599634;23;20174;-68
2022/04/29 11:02:13;;;;;;;4.97;2.70;;;;;;;;;;12598904;23;20277;-68
2022/04/29 11:07:34;;;;;;;3.05;2.75;;;;;;;;;;12599191;23;20711;-67
2022/04/29 11:12:40;;;;;;;3.70;3.05;;;;;;;;;;12599465;23;20240;-67
2022/04/29 11:18:22;;;;;;;5.28;2.95;;;;;;;;;;12491194;23;20185;-67
2022/04/29 11:28:51;;;;;;;3.15;2.85;;;;;;;;;;12574075;23;20208;-68
2022/04/29 11:34:06;;;;;;;3.97;3.47;;;;;;;;;;12596526;23;20212;-68
2022/04/29 11:39:08;;;;;;;3.70;2.85;;;;;;;;;;12599936;23;20230;-68
2022/04/29 11:44:09;;;;;;;6.32;3.80;;;;;;;;;;12632646;23;20596;-67
2022/04/29 11:49:12;;;;;;;3.45;3.10;;;;;;;;;;12659175;23;20173;-68
2022/04/29 11:54:13;;;;;;;6.55;3.60;;;;;;;;;;12658054;23;20177;-68
2022/04/29 11:59:16;;;;;;;7.28;3.58;;;;;;;;;;12659030;23;20201;-67
2022/04/29 12:04:17;;;;;;;6.03;3.13;;;;;;;;;;12659438;23;20283;-68
2022/04/29 12:09:18;;;;;;;3.72;3.35;;;;;;;;;;12659504;23;20692;-68
2022/04/29 12:14:20;;;;;;;3.90;3.47;;;;;;;;;;12660134;23;20176;-68
2022/04/29 12:19:21;;;;;;;5.55;3.45;;;;;;;;;;12659865;23;20513;-68
2022/04/29 12:24:23;;;;;;;3.58;3.33;;;;;;;;;;12658744;23;20259;-67
2022/04/29 12:29:30;;;;;;;3.88;3.50;;;;;;;;;;12658672;23;20177;-66
2022/04/29 12:34:50;;;;;;;7.40;3.00;;;;;;;;;;12680366;23;20213;-67
2022/04/29 12:40:03;;;;;;;4.20;3.30;;;;;;;;;;12681404;23;20196;-67
2022/04/29 12:45:11;;;;;;;3.90;3.10;;;;;;;;;;12658686;23;20208;-67
2022/04/29 12:50:31;;;;;;;3.63;2.83;;;;;;;;;;12681208;23;20650;-68
2022/04/29 12:55:35;;;;;;;3.90;2.58;;;;;;;;;;12660813;23;20619;-68
2022/04/29 13:00:37;;;;;;;5.10;3.22;;;;;;;;;;12661926;23;20217;-67
2022/04/29 13:05:40;;;;;;;3.50;3.22;;;;;;;;;;12663459;23;20197;-67
2022/04/29 13:10:42;;;;;;;4.22;3.13;;;;;;;;;;12657991;23;20236;-67
2022/04/29 13:15:44;;;;;;;5.65;3.40;;;;;;;;;;12662398;23;20184;-69
2022/04/29 13:20:46;;;;;;;7.45;3.75;;;;;;;;;;12684861;23;20197;-69
2022/04/29 13:25:56;;;;;;;6.57;4.60;;;;;;;;;;12681190;23;20204;-67
2022/04/29 13:30:58;;;;;;;6.10;4.15;;;;;;;;;;12657507;23;20204;-66
2022/04/29 13:36:00;;;;;;;10.77;4.25;;;;;;;;;;12656674;23;20255;-67
2022/04/29 13:41:01;;;;;;;4.85;4.40;;;;;;;;;;12679742;23;20299;-67
2022/04/29 13:46:03;;;;;;;7.18;3.33;;;;;;;;;;12657090;23;20259;-66
2022/04/29 13:51:04;;;;;;;5.35;4.00;;;;;;;;;;12659282;23;20177;-67
2022/04/29 13:56:05;;;;;;;4.40;3.95;;;;;;;;;;12656362;23;20181;-67
2022/04/29 14:01:07;;;;;;;3.95;2.92;;;;;;;;;;12660547;23;20233;-66
2022/04/29 14:06:08;;;;;;;6.30;2.92;;;;;;;;;;12661842;23;20290;-67
2022/04/29 14:11:11;;;;;;;3.08;2.90;;;;;;;;;;12658860;23;20268;-67
2022/04/29 14:16:12;;;;;;;3.13;2.53;;;;;;;;;;12654245;23;20272;-67
2022/04/29 14:21:13;;;;;;;2.67;2.40;;;;;;;;;;12652132;23;20176;-67
2022/04/29 14:26:14;;;;;;;3.08;2.47;;;;;;;;;;12658130;23;20200;-67
2022/04/29 14:31:16;;;;;;;4.50;3.38;;;;;;;;;;12656803;23;20592;-66
2022/04/29 14:36:19;;;;;;;5.60;2.90;;;;;;;;;;12660182;23;20199;-65
2022/04/29 14:41:20;;;;;;;2.60;2.40;;;;;;;;;;12657681;23;20260;-66
2022/04/29 14:46:21;;;;;;;4.03;2.03;;;;;;;;;;12662160;23;20204;-65
2022/04/29 14:51:23;;;;;;;3.75;2.70;;;;;;;;;;12659107;23;20185;-67
2022/04/29 14:56:24;;;;;;;5.03;2.42;;;;;;;;;;12659808;23;20623;-68
2022/04/29 15:01:25;;;;;;;2.70;2.33;;;;;;;;;;12655847;23;20204;-66
2022/04/29 15:06:26;;;;;;;7.80;3.22;;;;;;;;;;12657774;23;20189;-67
2022/04/29 15:16:47;;;;;;;3.00;2.80;;;;;;;;;;12655125;23;20185;-67
2022/04/29 15:21:48;;;;;;;2.70;2.55;;;;;;;;;;12652570;23;20519;-68
2022/04/29 15:26:49;;;;;;;2.70;2.47;;;;;;;;;;12654872;23;20224;-68
2022/04/29 15:31:50;;;;;;;3.88;2.55;;;;;;;;;;12656224;23;20217;-67
2022/04/29 15:36:52;;;;;;;7.70;3.50;;;;;;;;;;12659452;23;20193;-67
2022/04/29 15:41:53;;;;;;;5.40;3.35;;;;;;;;;;12657951;23;20224;-68
2022/04/29 15:46:54;;;;;;;3.67;2.67;;;;;;;;;;12658770;23;20251;-67
2022/04/29 15:51:56;;;;;;;3.75;3.22;;;;;;;;;;12655268;23;20180;-68
2022/04/29 15:56:57;;;;;;;5.18;2.58;;;;;;;;;;12657454;23;20727;-68
2022/04/29 16:01:58;;;;;;;5.63;2.47;;;;;;;;;;12654742;23;20252;-68
2022/04/29 16:06:59;;;;;;;3.92;3.58;;;;;;;;;;12658813;23;20196;-69
2022/04/29 16:12:00;;;;;;;6.22;2.60;;;;;;;;;;12678385;23;20180;-68
2022/04/29 16:17:01;;;;;;;4.25;2.88;;;;;;;;;;12657676;23;20212;-68
2022/04/29 16:22:02;;;;;;;3.58;2.95;;;;;;;;;;12655781;23;20183;-69
2022/04/29 16:27:04;;;;;;;6.35;2.90;;;;;;;;;;12658752;23;20201;-68
2022/04/29 16:32:08;;;;;;;3.42;2.78;;;;;;;;;;12658941;23;20200;-66
2022/04/29 16:37:11;;;;;;;3.08;2.80;;;;;;;;;;12660547;23;20619;-66
2022/04/29 16:42:12;;;;;;;3.75;2.20;;;;;;;;;;12662200;23;20209;-70
2022/04/29 16:47:13;;;;;;;7.43;2.40;;;;;;;;;;12663448;23;20296;-68
2022/04/29 16:52:14;;;;;;;3.92;2.85;;;;;;;;;;12663735;23;20263;-69
2022/04/29 17:02:35;;;;;;;2.92;2.40;;;;;;;;;;12659840;23;20283;-69
2022/04/29 17:07:36;;;;;;;3.25;2.00;;;;;;;;;;12660319;23;20199;-68
2022/04/29 17:12:37;;;;;;;2.38;2.13;;;;;;;;;;12663081;23;20177;-69
2022/04/29 17:17:38;;;;;;;2.42;2.28;;;;;;;;;;12662699;23;20185;-69
2022/04/29 17:22:39;;;;;;;2.50;2.40;;;;;;;;;;12661974;23;20259;-69
2022/04/29 17:27:42;;;;;;;4.57;2.50;;;;;;;;;;12662607;23;20203;-70
2022/04/29 17:32:44;;;;;;;4.75;2.55;;;;;;;;;;12661841;23;20537;-69
2022/04/29 17:37:45;;;;;;;6.20;3.17;;;;;;;;;;12659916;23;20181;-69
2022/04/29 17:42:46;;;;;;;4.18;2.72;;;;;;;;;;12659605;23;20208;-69
2022/04/29 17:47:50;;;;;;;3.15;2.88;;;;;;;;;;12661728;23;20189;-70
2022/04/29 17:52:53;;;;;;;3.90;2.40;;;;;;;;;;12659751;23;20244;-69
2022/04/29 17:57:54;;;;;;;4.85;4.43;;;;;;;;;;12654203;23;20217;-69
2022/04/29 18:02:55;;;;;;;4.22;3.10;;;;;;;;;;12658141;23;20207;-69
2022/04/29 18:07:56;;;;;;;7.13;3.05;;;;;;;;;;12657308;23;20189;-69
2022/04/29 18:13:01;;;;;;;7.43;2.80;;;;;;;;;;12658702;23;20267;-69
2022/04/29 18:18:02;;;;;;;4.35;2.85;;;;;;;;;;12659641;23;20204;-69
2022/04/29 18:23:04;;;;;;;6.20;3.70;;;;;;;;;;12658782;23;20272;-69
2022/04/29 18:28:05;;;;;;;8.85;6.07;;;;;;;;;;12659277;23;20271;-69
2022/04/29 18:33:07;;;;;;;6.50;5.93;;;;;;;;;;12657863;23;20276;-69
2022/04/29 18:38:08;;;;;;;4.47;3.42;;;;;;;;;;12659058;23;20185;-69
2022/04/29 18:43:10;;;;;;;5.57;2.50;;;;;;;;;;12659825;23;20556;-69
2022/04/29 18:48:11;;;;;;;4.80;4.13;;;;;;;;;;12660300;23;20201;-69
2022/04/29 18:53:12;;;;;;;8.57;4.00;;;;;;;;;;12659566;23;20185;-70
2022/04/29 18:58:13;;;;;;;8.65;4.30;;;;;;;;;;12657458;23;20204;-69
2022/04/29 19:03:16;;;;;;;6.32;3.85;;;;;;;;;;12655593;23;20306;-69
2022/04/29 19:08:17;;;;;;;8.55;3.75;;;;;;;;;;12659186;23;20679;-69
2022/04/29 19:13:19;;;;;;;4.43;4.13;;;;;;;;;;12657473;23;20181;-69
2022/04/29 19:18:22;;;;;;;9.52;6.45;;;;;;;;;;12659550;23;20193;-69
2022/04/29 19:23:23;;;;;;;4.65;4.20;;;;;;;;;;12655461;23;20216;-69
2022/04/29 19:28:25;;;;;;;5.18;4.18;;;;;;;;;;12660428;23;20219;-69
2022/04/29 19:33:27;;;;;;;4.97;2.88;;;;;;;;;;12654321;23;20208;-69
2022/04/29 19:38:28;;;;;;;7.35;4.00;;;;;;;;;;12657781;23;20231;-70
2022/04/29 19:43:29;;;;;;;6.30;3.78;;;;;;;;;;12657550;23;20315;-69
2022/04/29 19:48:30;;;;;;;5.53;4.60;;;;;;;;;;12660426;23;20212;-69
2022/04/29 19:53:33;;;;;;;12.13;6.70;;;;;;;;;;12659333;23;20185;-69
2022/04/29 20:03:54;;;;;;;9.88;5.78;;;;;;;;;;12655747;23;20209;-68
2022/04/29 20:08:55;;;;;;;7.30;5.10;;;;;;;;;;12657470;23;20260;-69
2022/04/29 20:13:57;;;;;;;6.25;5.13;;;;;;;;;;12656777;23;20176;-69
2022/04/29 20:18:58;;;;;;;5.25;4.70;;;;;;;;;;12654794;23;20180;-66
2022/04/29 20:23:59;;;;;;;5.03;4.63;;;;;;;;;;12653703;23;20208;-69
2022/04/29 20:29:03;;;;;;;6.85;6.15;;;;;;;;;;12653598;23;20192;-69
2022/04/29 20:34:06;;;;;;;10.23;5.95;;;;;;;;;;12654694;23;20213;-69
2022/04/29 20:43:57;;;;;;;7.78;5.43;;;;;;;;;;12656604;23;20622;-69
2022/04/29 20:44:30;;;;;;;5.55;4.60;;;;;;;;;;12676244;23;20541;-69
2022/04/29 20:49:31;;;;;;;5.20;4.70;;;;;;;;;;12652954;23;20212;-70
2022/04/29 20:54:32;;;;;;;7.22;4.35;;;;;;;;;;12674804;23;20180;-69
2022/04/29 20:59:33;;;;;;;5.57;4.88;;;;;;;;;;12651135;23;20189;-70
2022/04/29 21:04:34;;;;;;;11.20;5.25;;;;;;;;;;12651756;23;20275;-69
2022/04/29 21:09:36;;;;;;;8.82;7.93;;;;;;;;;;12654271;23;20188;-69
2022/04/29 21:14:38;;;;;;;6.25;4.68;;;;;;;;;;12651528;23;20184;-70
2022/04/29 21:19:39;;;;;;;8.50;4.38;;;;;;;;;;12653366;23;20762;-70
2022/04/29 21:24:41;;;;;;;6.28;4.35;;;;;;;;;;12654275;23;20688;-70
2022/04/29 21:35:02;;;;;;;6.82;4.57;;;;;;;;;;12649963;23;20553;-70
2022/04/29 21:40:04;;;;;;;4.60;3.63;;;;;;;;;;12653225;23;20212;-70
2022/04/29 21:45:05;;;;;;;6.93;3.95;;;;;;;;;;12652956;23;20611;-70
2022/04/29 21:50:06;;;;;;;5.57;3.80;;;;;;;;;;12653080;23;20232;-71
2022/04/29 21:55:08;;;;;;;10.45;3.53;;;;;;;;;;12653184;23;20252;-70
2022/04/29 22:00:13;;;;;;;6.38;3.45;;;;;;;;;;12657530;23;20607;-69
2022/04/29 22:05:17;;;;;;;6.38;3.08;;;;;;;;;;12652859;23;20205;-70
2022/04/29 22:10:18;;;;;;;6.70;4.03;;;;;;;;;;12655223;23;20208;-70
2022/04/29 22:15:19;;;;;;;6.10;3.30;;;;;;;;;;12678526;23;20189;-70
2022/04/29 22:20:21;;;;;;;6.57;3.60;;;;;;;;;;12654667;23;20185;-70
2022/04/29 22:25:23;;;;;;;3.40;3.08;;;;;;;;;;12653892;23;20296;-70
2022/04/29 22:30:24;;;;;;;5.65;3.47;;;;;;;;;;12653852;23;20534;-70
2022/04/29 22:35:25;;;;;;;5.50;2.95;;;;;;;;;;12654428;23;20267;-69
2022/04/29 22:40:27;;;;;;;3.10;3.00;;;;;;;;;;12653466;23;20180;-70
2022/04/29 22:45:28;;;;;;;7.25;3.30;;;;;;;;;;12653641;23;20260;-70
2022/04/29 22:50:29;;;;;;;8.68;3.17;;;;;;;;;;12652251;23;20260;-70
2022/04/29 22:55:30;;;;;;;6.47;3.35;;;;;;;;;;12650826;23;20195;-70
2022/04/29 23:00:33;;;;;;;7.60;3.50;;;;;;;;;;12669671;23;20205;-70
2022/04/29 23:05:35;;;;;;;5.40;3.30;;;;;;;;;;12647851;23;20200;-70
2022/04/29 23:10:36;;;;;;;4.05;3.42;;;;;;;;;;12653750;23;20264;-70
2022/04/29 23:15:37;;;;;;;4.40;3.47;;;;;;;;;;12651612;23;20200;-71
2022/04/29 23:20:38;;;;;;;7.47;4.20;;;;;;;;;;12653907;23;20560;-70
2022/04/29 23:25:42;;;;;;;6.53;3.85;;;;;;;;;;12652883;23;20231;-70
2022/04/29 23:30:44;;;;;;;6.03;3.60;;;;;;;;;;12652000;23;20615;-69
2022/04/29 23:35:46;;;;;;;7.57;3.85;;;;;;;;;;12650420;23;20189;-70
2022/04/29 23:40:47;;;;;;;3.70;3.40;;;;;;;;;;12649847;23;20180;-70
2022/04/29 23:45:48;;;;;;;5.30;4.20;;;;;;;;;;12650541;23;20215;-70
2022/04/29 23:50:50;;;;;;;7.88;3.95;;;;;;;;;;12652587;23;20248;-70
2022/04/29 23:55:51;;;;;;;7.10;3.88;;;;;;;;;;12641991;23;20537;-70
